Time;durP1;ratioP1;P1;durP2;ratioP2;P2;SDS_P1;SDS_P2;PMS_P1;PMS_P2;Temp;Humidity;BMP_temperature;BMP_pressure;BME280_temperature;BME280_humidity;BME280_pressure;Samples;Min_cycle;Max_cycle;Signal;HPM_P1;HPM_P2
2022/03/21 00:01:55;;;;;;;;;;;4.40;99.90;;;;;;5114722;28;20266;-88
2022/03/21 00:04:22;;;;;;;;;;;4.20;99.90;;;;;;5115020;28;20006;-88
2022/03/21 00:06:49;;;;;;;;;;;4.80;99.90;;;;;;5114630;28;19953;-85
2022/03/21 00:09:17;;;;;;;;;;;4.30;99.90;;;;;;5114906;28;19924;-86
2022/03/21 00:11:44;;;;;;;;;;;5.00;99.90;;;;;;5114916;28;20373;-88
2022/03/21 00:14:14;;;;;;;;;;;4.70;99.90;;;;;;5115195;28;19969;-88
2022/03/21 00:16:41;;;;;;;;;;;5.60;99.90;;;;;;5115409;28;19924;-86
2022/03/21 00:19:08;;;;;;;;;;;4.90;99.90;;;;;;5114674;28;19924;-88
2022/03/21 00:21:35;;;;;;;;;;;4.20;99.90;;;;;;5114639;28;20020;-88
2022/03/21 00:24:02;;;;;;;;;;;4.40;99.90;;;;;;5114743;28;19924;-86
2022/03/21 00:26:30;;;;;;;;;;;4.50;99.90;;;;;;5114783;28;19962;-88
2022/03/21 00:28:57;;;;;;;;;;;4.70;99.90;;;;;;5115043;28;19927;-87
2022/03/21 00:31:24;;;;;;;;;;;4.10;99.90;;;;;;5114941;28;19924;-86
2022/03/21 00:33:50;;;;;;;;;;;4.80;99.90;;;;;;5114284;28;19924;-88
2022/03/21 00:36:17;;;;;;;;;;;5.10;99.90;;;;;;5114555;28;19927;-87
2022/03/21 00:38:44;;;;;;;;;;;3.20;99.90;;;;;;5114125;28;19924;-86
2022/03/21 00:41:11;;;;;;;;;;;3.90;99.90;;;;;;5114612;28;19969;-87
2022/03/21 00:43:39;;;;;;;;;;;3.80;99.90;;;;;;5114873;28;19977;-87
2022/03/21 00:46:08;;;;;;;;;;;3.80;99.90;;;;;;5114587;28;19923;-88
2022/03/21 00:48:35;;;;;;;;;;;5.10;99.90;;;;;;5114695;28;20006;-86
2022/03/21 00:51:01;;;;;;;;;;;3.80;99.90;;;;;;5114563;28;19953;-87
2022/03/21 00:53:28;;;;;;;;;;;3.70;99.90;;;;;;5114224;28;20402;-88
2022/03/21 00:55:55;;;;;;;;;;;5.20;99.90;;;;;;5114496;28;19927;-87
2022/03/21 00:58:22;;;;;;;;;;;4.90;99.90;;;;;;5114167;28;19969;-87
2022/03/21 01:00:50;;;;;;;;;;;3.70;99.90;;;;;;5115702;28;19931;-87
2022/03/21 01:03:17;;;;;;;;;;;4.00;99.90;;;;;;5118490;28;19967;-87
2022/03/21 01:05:43;;;;;;;;;;;5.10;99.90;;;;;;5118428;28;19924;-87
2022/03/21 01:08:10;;;;;;;;;;;3.80;99.90;;;;;;5118227;28;19931;-87
2022/03/21 01:10:37;;;;;;;;;;;4.00;99.90;;;;;;5117936;27;19930;-86
2022/03/21 01:13:04;;;;;;;;;;;4.80;99.90;;;;;;5118296;28;19924;-86
2022/03/21 01:15:32;;;;;;;;;;;3.60;99.90;;;;;;5117649;28;19924;-87
2022/03/21 01:18:00;;;;;;;;;;;5.00;99.90;;;;;;5118342;28;19992;-87
2022/03/21 01:20:27;;;;;;;;;;;5.00;99.90;;;;;;5118137;28;19977;-88
2022/03/21 01:22:54;;;;;;;;;;;3.60;99.90;;;;;;5117669;28;19924;-88
2022/03/21 01:25:21;;;;;;;;;;;3.60;99.90;;;;;;5118027;28;19970;-88
2022/03/21 01:27:48;;;;;;;;;;;4.80;99.90;;;;;;5118384;28;19953;-86
2022/03/21 01:30:15;;;;;;;;;;;2.80;99.90;;;;;;5117881;28;19977;-87
2022/03/21 01:32:43;;;;;;;;;;;4.90;99.90;;;;;;5117955;28;19978;-86
2022/03/21 01:35:12;;;;;;;;;;;4.60;99.90;;;;;;5118064;28;19928;-86
2022/03/21 01:37:39;;;;;;;;;;;3.40;99.90;;;;;;5117783;28;19923;-86
2022/03/21 01:40:06;;;;;;;;;;;4.30;99.90;;;;;;5117804;28;19963;-86
2022/03/21 01:42:33;;;;;;;;;;;3.40;99.90;;;;;;5116907;28;19924;-86
2022/03/21 01:45:00;;;;;;;;;;;3.50;99.90;;;;;;5117468;28;20012;-86
2022/03/21 01:47:27;;;;;;;;;;;4.40;99.90;;;;;;5120531;28;20355;-85
2022/03/21 01:49:55;;;;;;;;;;;3.10;99.90;;;;;;5120948;28;19928;-84
2022/03/21 01:52:25;;;;;;;;;;;2.20;99.90;;;;;;5118193;28;20400;-85
2022/03/21 01:57:37;;;;;;;;;;;3.00;99.90;;;;;;5117065;28;20426;-88
2022/03/21 02:00:04;;;;;;;;;;;3.00;99.90;;;;;;5116366;28;19977;-89
2022/03/21 02:02:32;;;;;;;;;;;3.10;99.90;;;;;;5116995;28;19924;-87
2022/03/21 02:04:58;;;;;;;;;;;3.10;99.90;;;;;;5116650;28;20366;-86
2022/03/21 02:07:26;;;;;;;;;;;3.30;99.90;;;;;;5116321;28;19974;-87
2022/03/21 02:09:54;;;;;;;;;;;3.00;99.90;;;;;;5117017;28;19924;-88
2022/03/21 02:12:21;;;;;;;;;;;4.90;99.90;;;;;;5116341;28;19927;-87
2022/03/21 02:14:48;;;;;;;;;;;2.80;99.90;;;;;;5116937;28;19923;-88
2022/03/21 02:17:19;;;;;;;;;;;3.90;99.90;;;;;;5116619;28;20048;-87
2022/03/21 02:19:46;;;;;;;;;;;3.20;99.90;;;;;;5116575;28;19973;-88
2022/03/21 02:22:23;;;;;;;;;;;2.50;99.90;;;;;;5116626;28;20288;-88
2022/03/21 02:24:53;;;;;;;;;;;2.60;99.90;;;;;;5116621;28;19977;-87
2022/03/21 02:27:22;;;;;;;;;;;2.50;99.90;;;;;;5095947;28;19924;-87
2022/03/21 02:29:49;;;;;;;;;;;2.50;99.90;;;;;;5095658;28;19981;-87
2022/03/21 02:32:16;;;;;;;;;;;2.60;99.90;;;;;;5095676;28;19928;-86
2022/03/21 02:34:43;;;;;;;;;;;2.70;99.90;;;;;;5095970;28;19931;-86
2022/03/21 02:37:11;;;;;;;;;;;3.90;99.90;;;;;;5095629;28;19986;-85
2022/03/21 02:39:38;;;;;;;;;;;2.90;99.90;;;;;;5099499;28;19954;-87
2022/03/21 02:42:05;;;;;;;;;;;2.70;99.90;;;;;;5115747;28;19923;-85
2022/03/21 02:44:37;;;;;;;;;;;3.00;99.90;;;;;;5116004;28;19930;-86
2022/03/21 02:47:05;;;;;;;;;;;3.20;99.90;;;;;;5116193;28;19927;-85
2022/03/21 02:49:31;;;;;;;;;;;3.00;99.90;;;;;;5115721;28;19924;-86
2022/03/21 02:51:59;;;;;;;;;;;3.60;99.90;;;;;;5115915;28;19985;-87
2022/03/21 02:54:26;;;;;;;;;;;4.40;99.90;;;;;;5115440;28;19928;-87
2022/03/21 02:56:53;;;;;;;;;;;2.80;99.90;;;;;;5115445;28;19969;-86
2022/03/21 02:59:20;;;;;;;;;;;4.70;99.90;;;;;;5115667;28;19928;-85
2022/03/21 03:01:51;;;;;;;;;;;4.40;99.90;;;;;;5115247;28;19977;-86
2022/03/21 03:04:18;;;;;;;;;;;2.60;99.90;;;;;;5115590;28;19924;-88
2022/03/21 03:06:44;;;;;;;;;;;4.10;99.90;;;;;;5115488;28;19928;-86
2022/03/21 03:09:11;;;;;;;;;;;2.30;99.90;;;;;;5115493;28;19924;-86
2022/03/21 03:11:38;;;;;;;;;;;1.30;99.90;;;;;;5115356;28;19924;-87
2022/03/21 03:14:05;;;;;;;;;;;3.70;99.90;;;;;;5115224;28;19928;-87
2022/03/21 03:16:32;;;;;;;;;;;2.10;99.90;;;;;;5115283;28;19924;-88
2022/03/21 03:19:00;;;;;;;;;;;2.20;99.90;;;;;;5115476;28;20274;-87
2022/03/21 03:21:27;;;;;;;;;;;3.40;99.90;;;;;;5115145;28;19928;-84
2022/03/21 03:23:55;;;;;;;;;;;2.00;99.90;;;;;;5114546;28;19927;-88
2022/03/21 03:26:21;;;;;;;;;;;1.90;99.90;;;;;;5114907;28;19977;-86
2022/03/21 03:28:48;;;;;;;;;;;3.60;99.90;;;;;;5114588;28;19923;-85
2022/03/21 03:31:16;;;;;;;;;;;3.70;99.90;;;;;;5114638;28;19924;-85
2022/03/21 03:33:45;;;;;;;;;;;2.40;99.90;;;;;;5114501;28;19924;-87
2022/03/21 03:36:13;;;;;;;;;;;2.20;99.90;;;;;;5114556;28;19931;-88
2022/03/21 03:38:40;;;;;;;;;;;3.80;99.90;;;;;;5114866;28;19977;-86
2022/03/21 03:41:07;;;;;;;;;;;2.50;99.90;;;;;;5114756;28;20317;-85
2022/03/21 03:43:34;;;;;;;;;;;3.80;99.90;;;;;;5114519;28;19924;-86
2022/03/21 03:46:01;;;;;;;;;;;2.40;99.90;;;;;;5114580;28;19923;-85
2022/03/21 03:48:28;;;;;;;;;;;2.00;99.90;;;;;;5113995;28;19945;-86
2022/03/21 03:50:55;;;;;;;;;;;2.20;99.90;;;;;;5114892;28;19955;-85
2022/03/21 03:53:23;;;;;;;;;;;1.30;99.90;;;;;;5114065;28;19977;-85
2022/03/21 03:55:50;;;;;;;;;;;2.10;99.90;;;;;;5114782;28;19923;-86
2022/03/21 03:58:17;;;;;;;;;;;2.20;99.90;;;;;;5114088;28;19927;-85
2022/03/21 04:00:46;;;;;;;;;;;2.80;99.90;;;;;;5114066;28;19924;-86
2022/03/21 04:05:57;;;;;;;;;;;1.90;99.90;;;;;;5114261;28;20018;-86
2022/03/21 04:08:25;;;;;;;;;;;1.50;99.90;;;;;;5114313;28;20300;-86
2022/03/21 04:10:52;;;;;;;;;;;3.60;99.90;;;;;;5114192;28;19970;-86
2022/03/21 04:13:19;;;;;;;;;;;1.80;99.90;;;;;;5113754;28;20426;-87
2022/03/21 04:15:45;;;;;;;;;;;1.90;99.90;;;;;;5114323;28;20019;-87
2022/03/21 04:18:12;;;;;;;;;;;1.80;99.90;;;;;;5113763;28;19976;-86
2022/03/21 04:20:40;;;;;;;;;;;3.30;99.90;;;;;;5113738;28;19930;-86
2022/03/21 04:23:07;;;;;;;;;;;1.00;99.90;;;;;;5113931;28;20034;-86
2022/03/21 04:25:35;;;;;;;;;;;4.40;99.90;;;;;;5113457;28;20369;-86
2022/03/21 04:28:07;;;;;;;;;;;1.90;99.90;;;;;;5113567;28;19923;-86
2022/03/21 04:30:34;;;;;;;;;;;2.90;99.90;;;;;;5113688;28;20015;-86
2022/03/21 04:33:01;;;;;;;;;;;1.90;99.90;;;;;;5113674;28;19949;-86
2022/03/21 04:35:28;;;;;;;;;;;1.90;99.90;;;;;;5117142;28;19963;-86
2022/03/21 04:37:57;;;;;;;;;;;2.00;99.90;;;;;;5118173;28;19928;-86
2022/03/21 04:40:24;;;;;;;;;;;1.90;99.90;;;;;;5118168;28;19924;-85
2022/03/21 04:42:52;;;;;;;;;;;1.70;99.90;;;;;;5118178;28;19924;-86
2022/03/21 04:45:19;;;;;;;;;;;1.60;99.90;;;;;;5118002;28;20289;-86
2022/03/21 04:47:46;;;;;;;;;;;4.20;99.90;;;;;;5117486;28;19976;-85
2022/03/21 04:50:13;;;;;;;;;;;4.40;99.90;;;;;;5117714;28;20011;-85
2022/03/21 04:52:40;;;;;;;;;;;1.70;99.90;;;;;;5117459;28;19935;-86
2022/03/21 04:55:07;;;;;;;;;;;3.00;99.90;;;;;;5117362;28;19924;-86
2022/03/21 04:57:35;;;;;;;;;;;1.70;99.90;;;;;;5117748;28;19924;-85
2022/03/21 05:00:03;;;;;;;;;;;1.90;99.90;;;;;;5117534;28;19976;-86
2022/03/21 05:02:30;;;;;;;;;;;1.70;99.90;;;;;;5116853;28;20429;-84
2022/03/21 05:04:57;;;;;;;;;;;1.40;99.90;;;;;;5117753;28;19924;-84
2022/03/21 05:07:25;;;;;;;;;;;1.70;99.90;;;;;;5117280;28;20552;-87
2022/03/21 05:09:52;;;;;;;;;;;1.60;99.90;;;;;;5117564;28;19966;-83
2022/03/21 05:12:20;;;;;;;;;;;2.70;99.90;;;;;;5117399;28;20293;-86
2022/03/21 05:14:47;;;;;;;;;;;1.60;99.90;;;;;;5117286;28;19992;-86
2022/03/21 05:17:17;;;;;;;;;;;1.60;99.90;;;;;;5117331;28;19923;-85
2022/03/21 05:19:44;;;;;;;;;;;3.50;99.90;;;;;;5117447;28;19924;-84
2022/03/21 05:22:10;;;;;;;;;;;1.60;99.90;;;;;;5117307;28;19945;-85
2022/03/21 05:35:52;;;;;;;;;;;1.30;99.90;;;;;;5116630;28;19931;-85
2022/03/21 05:35:55;;;;;;;;;;;4.80;99.90;;;;;;5116573;28;19931;-85
2022/03/21 05:38:22;;;;;;;;;;;1.30;99.90;;;;;;5116605;28;19924;-85
2022/03/21 05:40:49;;;;;;;;;;;0.70;99.90;;;;;;5116386;28;19923;-86
2022/03/21 05:43:16;;;;;;;;;;;2.70;99.90;;;;;;5116475;28;19924;-84
2022/03/21 05:45:43;;;;;;;;;;;1.40;99.90;;;;;;5115453;28;19946;-85
2022/03/21 05:50:55;;;;;;;;;;;1.30;99.90;;;;;;5116430;28;19931;-85
2022/03/21 05:53:22;;;;;;;;;;;1.30;99.90;;;;;;5116138;28;19975;-85
2022/03/21 05:55:49;;;;;;;;;;;0.80;99.90;;;;;;5116562;28;19959;-85
2022/03/21 05:58:16;;;;;;;;;;;4.00;99.90;;;;;;5116600;28;19928;-84
2022/03/21 06:00:42;;;;;;;;;;;1.30;99.90;;;;;;5115751;28;19982;-84
2022/03/21 06:03:11;;;;;;;;;;;1.30;99.90;;;;;;5115872;28;20425;-84
2022/03/21 06:05:37;;;;;;;;;;;2.80;99.90;;;;;;5116467;27;19927;-85
2022/03/21 06:08:04;;;;;;;;;;;0.70;99.90;;;;;;5116095;28;19969;-85
2022/03/21 06:10:31;;;;;;;;;;;1.30;99.90;;;;;;5116035;28;19976;-85
2022/03/21 06:12:58;;;;;;;;;;;2.60;99.90;;;;;;5115610;28;19977;-85
2022/03/21 06:15:25;;;;;;;;;;;0.60;99.90;;;;;;5115969;28;19927;-85
2022/03/21 06:17:52;;;;;;;;;;;2.90;99.90;;;;;;5115659;28;20419;-86
2022/03/21 06:20:20;;;;;;;;;;;2.60;99.90;;;;;;5116073;28;19924;-85
2022/03/21 06:22:47;;;;;;;;;;;4.60;99.90;;;;;;5115831;28;19959;-84
2022/03/21 06:25:14;;;;;;;;;;;1.40;99.90;;;;;;5115716;28;19975;-85
2022/03/21 06:27:40;;;;;;;;;;;1.50;99.90;;;;;;5115604;27;19930;-84
2022/03/21 06:30:08;;;;;;;;;;;1.40;99.90;;;;;;5115639;28;20099;-83
2022/03/21 06:32:35;;;;;;;;;;;1.30;99.90;;;;;;5115652;28;19934;-85
2022/03/21 06:35:03;;;;;;;;;;;3.20;99.90;;;;;;5115725;28;20423;-85
2022/03/21 06:37:31;;;;;;;;;;;1.30;99.90;;;;;;5115383;28;20054;-84
2022/03/21 06:39:58;;;;;;;;;;;4.20;99.90;;;;;;5115426;28;20027;-84
2022/03/21 06:42:25;;;;;;;;;;;2.60;99.90;;;;;;5115165;28;20378;-85
2022/03/21 06:44:55;;;;;;;;;;;1.30;99.90;;;;;;5114839;28;19977;-85
2022/03/21 06:47:21;;;;;;;;;;;1.40;99.90;;;;;;5115026;28;19924;-84
2022/03/21 06:49:51;;;;;;;;;;;1.30;99.90;;;;;;5114823;28;19974;-86
2022/03/21 06:52:19;;;;;;;;;;;0.60;99.90;;;;;;5115174;28;20347;-86
2022/03/21 06:54:48;;;;;;;;;;;1.50;99.90;;;;;;5114908;28;19963;-85
2022/03/21 06:57:15;;;;;;;;;;;1.60;99.90;;;;;;5114971;28;19923;-85
2022/03/21 06:59:42;;;;;;;;;;;1.90;99.90;;;;;;5115114;28;19927;-85
2022/03/21 07:02:09;;;;;;;;;;;1.70;99.90;;;;;;5114548;28;19967;-85
2022/03/21 07:04:36;;;;;;;;;;;1.80;99.90;;;;;;5115363;28;19935;-85
2022/03/21 07:07:02;;;;;;;;;;;1.90;99.90;;;;;;5114937;28;20274;-86
2022/03/21 07:09:29;;;;;;;;;;;2.10;99.90;;;;;;5114989;28;19953;-84
2022/03/21 07:11:57;;;;;;;;;;;3.40;99.90;;;;;;5115051;28;19924;-85
2022/03/21 07:14:24;;;;;;;;;;;1.20;99.90;;;;;;5115040;28;19955;-83
2022/03/21 07:16:51;;;;;;;;;;;3.70;99.90;;;;;;5115337;28;20048;-85
2022/03/21 07:19:18;;;;;;;;;;;1.90;99.90;;;;;;5115016;28;19927;-85
2022/03/21 07:21:44;;;;;;;;;;;1.40;99.90;;;;;;5115578;28;20032;-83
2022/03/21 07:24:12;;;;;;;;;;;2.40;99.90;;;;;;5115776;28;20266;-84
2022/03/21 07:26:39;;;;;;;;;;;2.60;99.90;;;;;;5115001;28;19976;-83
2022/03/21 07:29:08;;;;;;;;;;;3.50;99.90;;;;;;5115196;28;19928;-85
2022/03/21 07:31:34;;;;;;;;;;;2.80;99.90;;;;;;5116023;28;19946;-86
2022/03/21 07:34:01;;;;;;;;;;;4.20;99.90;;;;;;5114973;28;19978;-85
2022/03/21 07:36:29;;;;;;;;;;;2.90;99.90;;;;;;5115669;28;19958;-85
2022/03/21 07:38:56;;;;;;;;;;;3.00;99.90;;;;;;5115261;28;20416;-83
2022/03/21 07:41:26;;;;;;;;;;;4.20;99.90;;;;;;5116336;28;20410;-86
2022/03/21 07:43:54;;;;;;;;;;;3.20;99.90;;;;;;5116092;28;19963;-85
2022/03/21 07:49:07;;;;;;;;;;;4.20;99.90;;;;;;5115115;28;19934;-82
2022/03/21 07:51:34;;;;;;;;;;;3.60;99.90;;;;;;5115238;28;19924;-85
2022/03/21 07:54:02;;;;;;;;;;;4.70;99.90;;;;;;5114831;28;19984;-83
2022/03/21 07:56:29;;;;;;;;;;;3.80;99.90;;;;;;5114514;28;19927;-83
2022/03/21 07:58:59;;;;;;;;;;;3.90;99.90;;;;;;5115110;28;20365;-85
2022/03/21 08:01:30;;;;;;;;;;;4.10;99.90;;;;;;5114481;28;20519;-87
2022/03/21 08:03:58;;;;;;;;;;;3.90;99.90;;;;;;5114529;28;19968;-85
2022/03/21 08:06:24;;;;;;;;;;;3.70;99.90;;;;;;5114605;28;19930;-85
2022/03/21 08:08:53;;;;;;;;;;;4.20;99.90;;;;;;5114372;28;19963;-84
2022/03/21 08:11:20;;;;;;;;;;;4.30;99.90;;;;;;5114462;28;19963;-85
2022/03/21 08:13:49;;;;;;;;;;;3.80;99.90;;;;;;5114454;28;19930;-85
2022/03/21 08:16:19;;;;;;;;;;;4.70;99.90;;;;;;5114282;28;19984;-86
2022/03/21 08:18:49;;;;;;;;;;;5.60;99.90;;;;;;5112409;28;20012;-85
2022/03/21 08:21:16;;;;;;;;;;;4.80;99.90;;;;;;5108364;28;19977;-87
2022/03/21 08:23:43;;;;;;;;;;;5.10;99.90;;;;;;5101606;28;20008;-87
2022/03/21 08:26:11;;;;;;;;;;;4.80;99.90;;;;;;5110732;28;19992;-86
2022/03/21 08:28:37;;;;;;;;;;;3.60;99.90;;;;;;5106139;28;20360;-85
2022/03/21 08:31:04;;;;;;;;;;;5.10;99.90;;;;;;5095203;28;19924;-86
2022/03/21 08:33:31;;;;;;;;;;;5.70;99.90;;;;;;5102193;28;19961;-86
2022/03/21 08:35:59;;;;;;;;;;;4.70;99.90;;;;;;5103906;28;19998;-85
2022/03/21 08:38:26;;;;;;;;;;;5.80;99.90;;;;;;5109240;28;19928;-84
2022/03/21 08:40:55;;;;;;;;;;;5.80;99.90;;;;;;5091679;28;19947;-84
2022/03/21 08:43:22;;;;;;;;;;;6.10;99.90;;;;;;5106726;28;20011;-84
2022/03/21 08:45:53;;;;;;;;;;;5.70;99.90;;;;;;5104286;28;19957;-86
2022/03/21 08:49:23;;;;;;;;;;;5.60;99.90;;;;;;5104801;28;20255;-87
2022/03/21 08:51:08;;;;;;;;;;;3.70;99.90;;;;;;5093362;28;19924;-86
2022/03/21 08:53:35;;;;;;;;;;;6.40;99.90;;;;;;5078076;28;20237;-87
2022/03/21 08:56:02;;;;;;;;;;;6.00;99.90;;;;;;5045209;28;19955;-88
2022/03/21 08:58:29;;;;;;;;;;;9.20;99.90;;;;;;5033183;28;19932;-82
2022/03/21 09:00:56;;;;;;;;;;;6.70;99.90;;;;;;5026943;28;19920;-83
2022/03/21 09:03:26;;;;;;;;;;;7.30;99.90;;;;;;5027272;28;21127;-85
2022/03/21 09:05:54;;;;;;;;;;;6.80;99.90;;;;;;5031622;28;19924;-85
2022/03/21 09:08:22;;;;;;;;;;;9.00;99.90;;;;;;5037875;28;19923;-85
2022/03/21 09:10:49;;;;;;;;;;;6.70;99.90;;;;;;5038298;28;21001;-86
2022/03/21 09:13:23;;;;;;;;;;;7.70;99.90;;;;;;5032628;28;19950;-89
2022/03/21 09:15:52;;;;;;;;;;;7.60;99.90;;;;;;5040185;28;19938;-87
2022/03/21 09:18:19;;;;;;;;;;;5.70;99.90;;;;;;5045747;28;20207;-88
2022/03/21 09:20:48;;;;;;;;;;;7.50;99.90;;;;;;5033402;28;20275;-88
2022/03/21 09:23:16;;;;;;;;;;;7.70;99.90;;;;;;5042722;28;21226;-89
2022/03/21 09:25:44;;;;;;;;;;;9.60;99.90;;;;;;5038800;28;19932;-88
2022/03/21 09:28:11;;;;;;;;;;;8.60;99.90;;;;;;5050101;27;20042;-86
2022/03/21 09:30:39;;;;;;;;;;;7.80;99.90;;;;;;5041065;27;19924;-80
2022/03/21 09:33:06;;;;;;;;;;;9.10;99.90;;;;;;5046199;28;19931;-85
2022/03/21 09:35:34;;;;;;;;;;;8.00;99.90;;;;;;5041899;28;19931;-87
2022/03/21 09:38:03;;;;;;;;;;;10.00;99.90;;;;;;5036879;28;20016;-89
2022/03/21 09:40:30;;;;;;;;;;;7.50;99.90;;;;;;5035516;28;19939;-87
2022/03/21 09:43:01;;;;;;;;;;;6.10;99.90;;;;;;5029159;28;19936;-88
2022/03/21 09:45:32;;;;;;;;;;;7.60;99.90;;;;;;5043399;27;19934;-87
2022/03/21 09:48:10;;;;;;;;;;;10.90;99.90;;;;;;5041499;27;20390;-88
2022/03/21 09:50:40;;;;;;;;;;;9.10;99.90;;;;;;5047575;27;19923;-87
2022/03/21 09:53:07;;;;;;;;;;;9.40;99.90;;;;;;5040375;28;19924;-85
2022/03/21 09:55:34;;;;;;;;;;;8.40;99.90;;;;;;5035905;27;20023;-88
2022/03/21 09:58:16;;;;;;;;;;;10.00;99.90;;;;;;5032774;27;20022;-88
2022/03/21 10:00:47;;;;;;;;;;;9.40;99.90;;;;;;5043802;27;21055;-88
2022/03/21 10:03:14;;;;;;;;;;;9.70;99.90;;;;;;5043765;27;19923;-87
2022/03/21 10:05:50;;;;;;;;;;;9.50;99.90;;;;;;5036609;27;20765;-88
2022/03/21 10:08:22;;;;;;;;;;;11.40;99.90;;;;;;5049064;27;20251;-89
2022/03/21 10:11:01;;;;;;;;;;;10.50;99.90;;;;;;5044928;28;20063;-89
2022/03/21 10:13:34;;;;;;;;;;;10.00;99.90;;;;;;5052949;28;20059;-88
2022/03/21 10:16:11;;;;;;;;;;;9.90;99.90;;;;;;5044673;28;20824;-86
2022/03/21 10:18:39;;;;;;;;;;;10.20;99.90;;;;;;5035424;28;21397;-87
2022/03/21 10:21:10;;;;;;;;;;;10.00;99.90;;;;;;5030338;28;19935;-84
2022/03/21 10:23:37;;;;;;;;;;;12.20;99.90;;;;;;5044790;28;19947;-84
2022/03/21 10:26:29;;;;;;;;;;;10.90;99.90;;;;;;5035711;28;20387;-89
2022/03/21 10:28:58;;;;;;;;;;;11.20;99.90;;;;;;5045706;28;19928;-87
2022/03/21 10:31:40;;;;;;;;;;;10.20;99.90;;;;;;5047694;27;19934;-88
2022/03/21 10:34:09;;;;;;;;;;;10.30;98.80;;;;;;5036844;27;20569;-88
2022/03/21 10:36:54;;;;;;;;;;;10.00;99.80;;;;;;5042634;27;19938;-90
2022/03/21 10:39:20;;;;;;;;;;;12.10;99.40;;;;;;5032721;27;19924;-88
2022/03/21 10:41:51;;;;;;;;;;;10.40;99.80;;;;;;5041973;28;19928;-89
2022/03/21 10:44:21;;;;;;;;;;;10.90;99.90;;;;;;5043310;27;20120;-89
2022/03/21 10:47:04;;;;;;;;;;;11.20;99.90;;;;;;5038068;27;19972;-89
2022/03/21 10:49:33;;;;;;;;;;;10.50;98.00;;;;;;5032900;27;20115;-88
2022/03/21 10:52:00;;;;;;;;;;;10.40;99.70;;;;;;5043138;28;19928;-84
2022/03/21 10:54:40;;;;;;;;;;;12.70;99.50;;;;;;5040075;28;20018;-87
2022/03/21 10:57:08;;;;;;;;;;;10.70;98.20;;;;;;5033576;27;19931;-87
2022/03/21 10:59:35;;;;;;;;;;;11.10;99.70;;;;;;5037679;27;19935;-87
2022/03/21 11:02:14;;;;;;;;;;;11.10;98.40;;;;;;5037168;28;20030;-87
2022/03/21 11:04:43;;;;;;;;;;;14.00;98.00;;;;;;5045960;27;19971;-87
2022/03/21 11:07:11;;;;;;;;;;;11.10;99.80;;;;;;5041946;28;19927;-88
2022/03/21 11:09:41;;;;;;;;;;;11.20;98.40;;;;;;5040456;28;19923;-87
2022/03/21 11:12:10;;;;;;;;;;;11.20;99.30;;;;;;5049069;27;21192;-88
2022/03/21 11:14:42;;;;;;;;;;;11.00;97.70;;;;;;5038473;28;19928;-83
2022/03/21 11:17:10;;;;;;;;;;;11.80;96.40;;;;;;5035527;28;20001;-85
2022/03/21 11:19:45;;;;;;;;;;;13.20;97.80;;;;;;5038000;28;20046;-86
2022/03/21 11:22:12;;;;;;;;;;;11.40;95.70;;;;;;5040813;28;20018;-82
2022/03/21 11:24:42;;;;;;;;;;;11.30;95.80;;;;;;5049516;27;19977;-86
2022/03/21 11:27:31;;;;;;;;;;;;;;;;;;;;;
2022/03/21 11:30:07;;;;;;;;;;;11.30;95.50;;;;;;5036456;27;20195;-86
2022/03/21 11:32:41;;;;;;;;;;;11.80;94.60;;;;;;5031811;28;21084;-86
2022/03/21 11:35:17;;;;;;;;;;;15.50;95.10;;;;;;5027623;27;19934;-87
2022/03/21 11:37:46;;;;;;;;;;;12.90;95.30;;;;;;5026903;28;19942;-87
2022/03/21 11:40:32;;;;;;;;;;;11.50;96.00;;;;;;5032008;28;19924;-88
2022/03/21 11:43:21;;;;;;;;;;;10.00;91.90;;;;;;5042681;27;21310;-88
2022/03/21 11:45:53;;;;;;;;;;;14.30;93.70;;;;;;5032397;28;20331;-86
2022/03/21 11:48:37;;;;;;;;;;;16.40;96.50;;;;;;5040938;28;19923;-86
2022/03/21 11:51:29;;;;;;;;;;;10.20;93.30;;;;;;5039466;28;20516;-88
2022/03/21 11:54:00;;;;;;;;;;;11.60;93.80;;;;;;5014543;28;19931;-88
2022/03/21 11:56:47;;;;;;;;;;;10.70;93.70;;;;;;5037650;28;20690;-90
2022/03/21 11:59:55;;;;;;;;;;;12.30;93.20;;;;;;5032373;27;19924;-90
2022/03/21 12:02:56;;;;;;;;;;;11.40;93.20;;;;;;5026679;28;19936;-90
2022/03/21 12:05:57;;;;;;;;;;;10.50;93.50;;;;;;5029204;28;21832;-89
2022/03/21 12:08:41;;;;;;;;;;;11.40;92.80;;;;;;4986247;28;20343;-89
2022/03/21 12:11:29;;;;;;;;;;;13.60;94.70;;;;;;5040166;28;19928;-87
2022/03/21 12:14:21;;;;;;;;;;;12.60;96.50;;;;;;5042061;28;19967;-88
2022/03/21 12:17:14;;;;;;;;;;;11.40;93.50;;;;;;5048511;28;20293;-90
2022/03/21 12:20:01;;;;;;;;;;;11.30;94.70;;;;;;5043509;28;20467;-91
2022/03/21 12:22:39;;;;;;;;;;;11.80;93.30;;;;;;5044161;28;20035;-89
2022/03/21 12:25:11;;;;;;;;;;;11.50;93.10;;;;;;5053563;28;20080;-88
2022/03/21 12:27:39;;;;;;;;;;;10.70;93.00;;;;;;5036456;28;19923;-88
2022/03/21 12:30:22;;;;;;;;;;;11.10;93.80;;;;;;5038837;28;19930;-87
2022/03/21 12:32:51;;;;;;;;;;;12.50;93.80;;;;;;5034858;28;19932;-88
2022/03/21 12:35:42;;;;;;;;;;;11.40;93.80;;;;;;5027746;28;19924;-90
2022/03/21 12:38:14;;;;;;;;;;;9.70;90.60;;;;;;5031736;28;19923;-86
2022/03/21 12:41:08;;;;;;;;;;;11.70;93.00;;;;;;5035219;28;19924;-89
2022/03/21 12:43:52;;;;;;;;;;;11.60;91.20;;;;;;5041660;28;19924;-90
2022/03/21 12:46:27;;;;;;;;;;;11.80;90.10;;;;;;5036247;28;19925;-89
2022/03/21 12:49:04;;;;;;;;;;;11.50;89.00;;;;;;5037037;28;19931;-87
2022/03/21 12:51:35;;;;;;;;;;;11.90;89.70;;;;;;5042754;28;19967;-87
2022/03/21 12:54:03;;;;;;;;;;;11.70;89.00;;;;;;5053011;28;20093;-88
2022/03/21 12:56:31;;;;;;;;;;;11.80;91.90;;;;;;5046719;27;19928;-86
2022/03/21 12:59:10;;;;;;;;;;;13.60;91.90;;;;;;5047076;28;19924;-89
2022/03/21 13:01:41;;;;;;;;;;;11.80;90.10;;;;;;5051211;28;21190;-90
2022/03/21 13:12:31;;;;;;;;;;;12.70;90.80;;;;;;5049830;28;20055;-89
2022/03/21 13:15:09;;;;;;;;;;;11.50;92.10;;;;;;5041234;28;19924;-89
2022/03/21 13:17:54;;;;;;;;;;;11.80;90.10;;;;;;5034729;28;20387;-88
2022/03/21 13:20:29;;;;;;;;;;;13.50;91.10;;;;;;5038341;28;20018;-86
2022/03/21 13:22:56;;;;;;;;;;;12.00;93.20;;;;;;5044116;27;19935;-86
2022/03/21 13:25:24;;;;;;;;;;;13.40;93.30;;;;;;5047645;27;20009;-85
2022/03/21 13:27:51;;;;;;;;;;;12.60;91.10;;;;;;5057208;28;19923;-85
2022/03/21 13:30:23;;;;;;;;;;;11.80;91.90;;;;;;5050177;28;20463;-86
2022/03/21 13:32:56;;;;;;;;;;;11.40;91.90;;;;;;5037658;28;19993;-85
2022/03/21 13:35:24;;;;;;;;;;;12.00;91.60;;;;;;5048277;28;20734;-85
2022/03/21 13:37:59;;;;;;;;;;;11.40;92.10;;;;;;5040687;28;19924;-87
2022/03/21 13:40:27;;;;;;;;;;;11.40;92.20;;;;;;5050841;28;20116;-86
2022/03/21 13:42:54;;;;;;;;;;;12.30;92.90;;;;;;5037220;28;20384;-85
2022/03/21 13:45:22;;;;;;;;;;;12.80;92.50;;;;;;5042188;27;19931;-85
2022/03/21 13:47:53;;;;;;;;;;;11.90;93.70;;;;;;5053308;28;20191;-86
2022/03/21 13:50:29;;;;;;;;;;;12.60;92.00;;;;;;5048641;28;19931;-86
2022/03/21 13:53:04;;;;;;;;;;;12.20;92.00;;;;;;5056061;28;19924;-85
2022/03/21 13:55:38;;;;;;;;;;;12.10;94.10;;;;;;5050849;28;20216;-86
2022/03/21 13:58:06;;;;;;;;;;;12.00;92.40;;;;;;5041857;28;20012;-86
2022/03/21 14:00:35;;;;;;;;;;;11.60;94.20;;;;;;5033235;28;20256;-86
2022/03/21 14:03:04;;;;;;;;;;;9.80;92.10;;;;;;5035220;28;19935;-87
2022/03/21 14:05:34;;;;;;;;;;;11.80;92.70;;;;;;5036816;28;20208;-87
2022/03/21 14:08:11;;;;;;;;;;;11.60;94.10;;;;;;5037739;28;19923;-84
2022/03/21 14:10:39;;;;;;;;;;;11.10;92.60;;;;;;5037740;28;21360;-85
2022/03/21 14:13:12;;;;;;;;;;;13.40;94.80;;;;;;5032102;28;19985;-85
2022/03/21 14:15:39;;;;;;;;;;;13.00;93.40;;;;;;5033682;28;20466;-84
2022/03/21 14:18:10;;;;;;;;;;;12.20;93.80;;;;;;5026894;28;19986;-85
2022/03/21 14:20:41;;;;;;;;;;;12.00;93.30;;;;;;5029729;28;19939;-85
2022/03/21 14:23:10;;;;;;;;;;;12.20;95.30;;;;;;5028047;28;20431;-88
2022/03/21 14:28:22;;;;;;;;;;;10.40;94.60;;;;;;5026784;28;19927;-86
2022/03/21 14:30:49;;;;;;;;;;;12.40;95.80;;;;;;5027609;28;19989;-86
2022/03/21 14:33:17;;;;;;;;;;;12.10;95.10;;;;;;5040207;28;20405;-85
2022/03/21 14:35:47;;;;;;;;;;;12.70;93.50;;;;;;5027017;28;20959;-85
2022/03/21 14:38:15;;;;;;;;;;;13.80;95.70;;;;;;5024841;28;19932;-86
2022/03/21 14:40:48;;;;;;;;;;;12.60;94.70;;;;;;5032958;27;19920;-85
2022/03/21 14:43:15;;;;;;;;;;;12.20;97.20;;;;;;5040125;28;21120;-85
2022/03/21 14:45:45;;;;;;;;;;;12.20;96.90;;;;;;5027519;28;19938;-86
2022/03/21 14:48:14;;;;;;;;;;;11.90;95.50;;;;;;5031816;28;20309;-86
2022/03/21 14:50:44;;;;;;;;;;;12.00;96.00;;;;;;5028987;28;19934;-86
2022/03/21 14:53:11;;;;;;;;;;;12.30;95.00;;;;;;5036418;28;19923;-86
2022/03/21 14:55:39;;;;;;;;;;;9.60;94.90;;;;;;5034006;28;19924;-86
2022/03/21 14:58:12;;;;;;;;;;;12.00;96.80;;;;;;5026479;28;19970;-85
2022/03/21 15:00:45;;;;;;;;;;;14.30;96.00;;;;;;5033707;27;19920;-86
2022/03/21 15:03:12;;;;;;;;;;;12.20;94.50;;;;;;5041674;27;19924;-84
2022/03/21 15:05:40;;;;;;;;;;;12.60;95.40;;;;;;5035752;28;19959;-85
2022/03/21 15:08:09;;;;;;;;;;;11.70;95.90;;;;;;5034794;28;20116;-86
2022/03/21 15:10:44;;;;;;;;;;;12.40;94.70;;;;;;5034289;28;19932;-84
2022/03/21 15:13:16;;;;;;;;;;;13.30;94.10;;;;;;5034547;28;19948;-86